sensor_id;sensor_type;location;lat;lon;timestamp;temperature;humidity
72865;DHT22;61000;48.120;11.548;2023-04-01T00:01:07;8.10;99.90
72865;DHT22;61000;48.120;11.548;2023-04-01T00:03:34;8.00;99.90
72865;DHT22;61000;48.120;11.548;2023-04-01T00:06:01;8.00;99.90
72865;DHT22;61000;48.120;11.548;2023-04-01T00:08:29;8.00;99.90
72865;DHT22;61000;48.120;11.548;2023-04-01T00:10:57;7.90;99.90
72865;DHT22;61000;48.120;11.548;2023-04-01T00:13:25;7.90;99.90
72865;DHT22;61000;48.120;11.548;2023-04-01T00:15:53;7.90;99.90
72865;DHT22;61000;48.120;11.548;2023-04-01T00:18:20;7.90;99.90
72865;DHT22;61000;48.120;11.548;2023-04-01T00:20:48;7.90;99.90
72865;DHT22;61000;48.120;11.548;2023-04-01T00:23:16;7.90;99.90
72865;DHT22;61000;48.120;11.548;2023-04-01T00:25:44;7.90;99.90
72865;DHT22;61000;48.120;11.548;2023-04-01T00:28:12;7.90;99.90
72865;DHT22;61000;48.120;11.548;2023-04-01T00:30:39;7.90;99.90
72865;DHT22;61000;48.120;11.548;2023-04-01T00:33:06;7.80;99.90
72865;DHT22;61000;48.120;11.548;2023-04-01T00:35:33;7.80;99.90
72865;DHT22;61000;48.120;11.548;2023-04-01T00:38:00;7.80;99.90
72865;DHT22;61000;48.120;11.548;2023-04-01T00:40:29;7.80;99.90
72865;DHT22;61000;48.120;11.548;2023-04-01T00:42:57;7.70;99.90
72865;DHT22;61000;48.120;11.548;2023-04-01T00:45:30;7.80;99.90
72865;DHT22;61000;48.120;11.548;2023-04-01T00:47:59;7.80;99.90
72865;DHT22;61000;48.120;11.548;2023-04-01T00:50:29;7.70;99.90
72865;DHT22;61000;48.120;11.548;2023-04-01T00:52:57;7.80;99.90
72865;DHT22;61000;48.120;11.548;2023-04-01T00:55:27;7.70;99.90
72865;DHT22;61000;48.120;11.548;2023-04-01T00:57:57;7.70;99.90
72865;DHT22;61000;48.120;11.548;2023-04-01T01:00:27;7.70;99.90
72865;DHT22;61000;48.120;11.548;2023-04-01T01:02:54;7.70;99.90
72865;DHT22;61000;48.120;11.548;2023-04-01T01:05:26;7.70;99.90
72865;DHT22;61000;48.120;11.548;2023-04-01T01:08:01;7.80;99.90
72865;DHT22;61000;48.120;11.548;2023-04-01T01:10:31;7.80;99.90
72865;DHT22;61000;48.120;11.548;2023-04-01T01:13:04;7.80;99.90
72865;DHT22;61000;48.120;11.548;2023-04-01T01:15:37;7.80;99.90
72865;DHT22;61000;48.120;11.548;2023-04-01T01:18:10;7.90;99.90
72865;DHT22;61000;48.120;11.548;2023-04-01T01:21:06;7.90;99.90
72865;DHT22;61000;48.120;11.548;2023-04-01T01:26:51;8.00;99.90
72865;DHT22;61000;48.120;11.548;2023-04-01T01:29:33;8.00;99.90
72865;DHT22;61000;48.120;11.548;2023-04-01T01:32:10;8.00;99.90
72865;DHT22;61000;48.120;11.548;2023-04-01T01:34:46;8.00;99.90
72865;DHT22;61000;48.120;11.548;2023-04-01T01:37:20;8.00;99.90
72865;DHT22;61000;48.120;11.548;2023-04-01T01:39:54;8.00;99.90
72865;DHT22;61000;48.120;11.548;2023-04-01T01:42:22;8.00;99.90
72865;DHT22;61000;48.120;11.548;2023-04-01T01:44:52;8.00;99.90
72865;DHT22;61000;48.120;11.548;2023-04-01T01:47:21;8.00;99.90
72865;DHT22;61000;48.120;11.548;2023-04-01T01:49:51;7.90;99.90
72865;DHT22;61000;48.120;11.548;2023-04-01T01:52:19;7.90;99.90
72865;DHT22;61000;48.120;11.548;2023-04-01T01:54:48;7.90;99.90
72865;DHT22;61000;48.120;11.548;2023-04-01T01:57:17;7.90;99.90
72865;DHT22;61000;48.120;11.548;2023-04-01T01:59:51;7.90;99.90
72865;DHT22;61000;48.120;11.548;2023-04-01T02:02:25;7.90;99.90
72865;DHT22;61000;48.120;11.548;2023-04-01T02:04:52;7.90;99.90
72865;DHT22;61000;48.120;11.548;2023-04-01T02:07:25;7.90;99.90
72865;DHT22;61000;48.120;11.548;2023-04-01T02:09:53;8.00;99.90
72865;DHT22;61000;48.120;11.548;2023-04-01T02:12:22;8.00;99.90
72865;DHT22;61000;48.120;11.548;2023-04-01T02:14:52;8.00;99.90
72865;DHT22;61000;48.120;11.548;2023-04-01T02:17:22;8.00;99.90
72865;DHT22;61000;48.120;11.548;2023-04-01T02:19:53;8.00;99.90
72865;DHT22;61000;48.120;11.548;2023-04-01T02:22:27;8.00;99.90
72865;DHT22;61000;48.120;11.548;2023-04-01T02:24:58;8.00;99.90
72865;DHT22;61000;48.120;11.548;2023-04-01T02:27:26;8.00;99.90
72865;DHT22;61000;48.120;11.548;2023-04-01T02:29:53;8.00;99.90
72865;DHT22;61000;48.120;11.548;2023-04-01T02:32:20;8.00;99.90
72865;DHT22;61000;48.120;11.548;2023-04-01T02:34:48;8.00;99.90
72865;DHT22;61000;48.120;11.548;2023-04-01T02:37:15;8.10;99.90
72865;DHT22;61000;48.120;11.548;2023-04-01T02:39:43;8.00;99.90
72865;DHT22;61000;48.120;11.548;2023-04-01T02:42:10;8.10;99.90
72865;DHT22;61000;48.120;11.548;2023-04-01T02:44:37;8.00;99.90
72865;DHT22;61000;48.120;11.548;2023-04-01T02:47:04;8.00;99.90
72865;DHT22;61000;48.120;11.548;2023-04-01T02:49:31;8.00;99.90
72865;DHT22;61000;48.120;11.548;2023-04-01T02:51:58;8.00;99.90
72865;DHT22;61000;48.120;11.548;2023-04-01T02:54:25;8.00;99.90
72865;DHT22;61000;48.120;11.548;2023-04-01T02:56:53;8.00;99.90
72865;DHT22;61000;48.120;11.548;2023-04-01T02:59:20;8.00;99.90
72865;DHT22;61000;48.120;11.548;2023-04-01T03:01:47;8.00;99.90
72865;DHT22;61000;48.120;11.548;2023-04-01T03:04:14;8.00;99.90
72865;DHT22;61000;48.120;11.548;2023-04-01T03:06:41;7.90;99.90
72865;DHT22;61000;48.120;11.548;2023-04-01T03:09:07;7.90;99.90
72865;DHT22;61000;48.120;11.548;2023-04-01T03:11:34;7.90;99.90
72865;DHT22;61000;48.120;11.548;2023-04-01T03:14:03;7.90;99.90
72865;DHT22;61000;48.120;11.548;2023-04-01T03:16:30;7.90;99.90
72865;DHT22;61000;48.120;11.548;2023-04-01T03:18:57;7.90;99.90
72865;DHT22;61000;48.120;11.548;2023-04-01T03:21:25;7.80;99.90
72865;DHT22;61000;48.120;11.548;2023-04-01T03:23:52;7.80;99.90
72865;DHT22;61000;48.120;11.548;2023-04-01T03:26:19;7.80;99.90
72865;DHT22;61000;48.120;11.548;2023-04-01T03:28:47;7.80;99.90
72865;DHT22;61000;48.120;11.548;2023-04-01T03:31:15;7.80;99.90
72865;DHT22;61000;48.120;11.548;2023-04-01T03:33:48;7.70;99.90
72865;DHT22;61000;48.120;11.548;2023-04-01T03:36:16;7.70;99.90
72865;DHT22;61000;48.120;11.548;2023-04-01T03:38:44;7.70;99.90
72865;DHT22;61000;48.120;11.548;2023-04-01T03:41:16;7.60;99.90
72865;DHT22;61000;48.120;11.548;2023-04-01T03:43:44;7.60;99.90
72865;DHT22;61000;48.120;11.548;2023-04-01T03:46:11;7.60;99.90
72865;DHT22;61000;48.120;11.548;2023-04-01T03:48:39;7.60;99.90
72865;DHT22;61000;48.120;11.548;2023-04-01T03:51:07;7.60;99.90
72865;DHT22;61000;48.120;11.548;2023-04-01T03:53:34;7.50;99.90
72865;DHT22;61000;48.120;11.548;2023-04-01T03:56:04;7.50;99.90
72865;DHT22;61000;48.120;11.548;2023-04-01T03:58:32;7.50;99.90
72865;DHT22;61000;48.120;11.548;2023-04-01T04:01:01;7.50;99.90
72865;DHT22;61000;48.120;11.548;2023-04-01T04:03:28;7.50;99.90
72865;DHT22;61000;48.120;11.548;2023-04-01T04:05:57;7.50;99.90
72865;DHT22;61000;48.120;11.548;2023-04-01T04:08:24;7.50;99.90
72865;DHT22;61000;48.120;11.548;2023-04-01T04:10:55;7.40;99.90
72865;DHT22;61000;48.120;11.548;2023-04-01T04:13:22;7.40;99.90
72865;DHT22;61000;48.120;11.548;2023-04-01T04:15:58;7.40;99.90
72865;DHT22;61000;48.120;11.548;2023-04-01T04:18:25;7.40;99.90
72865;DHT22;61000;48.120;11.548;2023-04-01T04:20:52;7.40;99.90
72865;DHT22;61000;48.120;11.548;2023-04-01T04:23:21;7.40;99.90
72865;DHT22;61000;48.120;11.548;2023-04-01T04:25:55;7.40;99.90
72865;DHT22;61000;48.120;11.548;2023-04-01T04:28:23;7.40;99.90
72865;DHT22;61000;48.120;11.548;2023-04-01T04:30:52;7.50;99.90
72865;DHT22;61000;48.120;11.548;2023-04-01T04:33:19;7.40;99.90
72865;DHT22;61000;48.120;11.548;2023-04-01T04:35:46;7.50;99.90
72865;DHT22;61000;48.120;11.548;2023-04-01T04:38:13;7.50;99.90
72865;DHT22;61000;48.120;11.548;2023-04-01T04:40:42;7.50;99.90
72865;DHT22;61000;48.120;11.548;2023-04-01T04:43:11;7.50;99.90
72865;DHT22;61000;48.120;11.548;2023-04-01T04:45:38;7.50;99.90
72865;DHT22;61000;48.120;11.548;2023-04-01T04:48:06;7.40;99.90
72865;DHT22;61000;48.120;11.548;2023-04-01T04:50:34;7.50;99.90
72865;DHT22;61000;48.120;11.548;2023-04-01T04:53:01;7.50;99.90
72865;DHT22;61000;48.120;11.548;2023-04-01T04:55:29;7.70;99.90
72865;DHT22;61000;48.120;11.548;2023-04-01T04:58:27;7.50;99.90
72865;DHT22;61000;48.120;11.548;2023-04-01T05:00:54;7.60;99.90
72865;DHT22;61000;48.120;11.548;2023-04-01T05:03:28;7.70;99.90
72865;DHT22;61000;48.120;11.548;2023-04-01T05:05:55;7.60;99.90
72865;DHT22;61000;48.120;11.548;2023-04-01T05:08:23;7.60;99.90
72865;DHT22;61000;48.120;11.548;2023-04-01T05:10:50;7.70;99.90
72865;DHT22;61000;48.120;11.548;2023-04-01T05:13:17;7.70;99.90
72865;DHT22;61000;48.120;11.548;2023-04-01T05:15:47;7.70;99.90
72865;DHT22;61000;48.120;11.548;2023-04-01T05:18:15;7.80;99.90
72865;DHT22;61000;48.120;11.548;2023-04-01T05:20:46;7.80;99.90
72865;DHT22;61000;48.120;11.548;2023-04-01T05:23:13;7.90;99.90
72865;DHT22;61000;48.120;11.548;2023-04-01T05:25:40;7.90;99.90
72865;DHT22;61000;48.120;11.548;2023-04-01T05:28:07;7.90;99.90
72865;DHT22;61000;48.120;11.548;2023-04-01T05:30:34;7.90;99.90
72865;DHT22;61000;48.120;11.548;2023-04-01T05:33:23;7.90;99.90
72865;DHT22;61000;48.120;11.548;2023-04-01T05:35:50;7.90;99.90
72865;DHT22;61000;48.120;11.548;2023-04-01T05:38:17;8.00;99.90
72865;DHT22;61000;48.120;11.548;2023-04-01T05:40:44;8.00;99.90
72865;DHT22;61000;48.120;11.548;2023-04-01T05:43:11;8.00;99.90
72865;DHT22;61000;48.120;11.548;2023-04-01T05:45:39;8.00;99.90
72865;DHT22;61000;48.120;11.548;2023-04-01T05:48:06;8.00;99.90
72865;DHT22;61000;48.120;11.548;2023-04-01T05:50:41;8.10;99.90
72865;DHT22;61000;48.120;11.548;2023-04-01T05:53:09;8.00;99.90
72865;DHT22;61000;48.120;11.548;2023-04-01T05:55:37;8.10;99.90
72865;DHT22;61000;48.120;11.548;2023-04-01T05:58:04;8.10;99.90
72865;DHT22;61000;48.120;11.548;2023-04-01T06:00:31;8.10;99.90
72865;DHT22;61000;48.120;11.548;2023-04-01T06:02:59;8.10;99.90
72865;DHT22;61000;48.120;11.548;2023-04-01T06:05:28;8.10;99.90
72865;DHT22;61000;48.120;11.548;2023-04-01T06:07:59;8.20;99.90
72865;DHT22;61000;48.120;11.548;2023-04-01T06:10:42;8.20;99.90
72865;DHT22;61000;48.120;11.548;2023-04-01T06:13:16;8.20;99.90
72865;DHT22;61000;48.120;11.548;2023-04-01T06:15:51;8.30;99.90
72865;DHT22;61000;48.120;11.548;2023-04-01T06:18:45;8.20;99.90
72865;DHT22;61000;48.120;11.548;2023-04-01T06:21:31;8.20;99.90
72865;DHT22;61000;48.120;11.548;2023-04-01T06:24:27;8.20;99.90
72865;DHT22;61000;48.120;11.548;2023-04-01T06:27:02;8.30;99.90
72865;DHT22;61000;48.120;11.548;2023-04-01T06:29:50;8.30;99.90
72865;DHT22;61000;48.120;11.548;2023-04-01T06:32:52;8.30;99.90
72865;DHT22;61000;48.120;11.548;2023-04-01T06:35:31;8.30;99.90
72865;DHT22;61000;48.120;11.548;2023-04-01T06:38:18;8.40;99.90
72865;DHT22;61000;48.120;11.548;2023-04-01T06:41:06;8.40;99.90
72865;DHT22;61000;48.120;11.548;2023-04-01T06:43:46;8.40;99.90
72865;DHT22;61000;48.120;11.548;2023-04-01T06:46:42;8.50;99.90
72865;DHT22;61000;48.120;11.548;2023-04-01T06:49:40;8.50;99.90
72865;DHT22;61000;48.120;11.548;2023-04-01T06:52:48;8.50;99.90
72865;DHT22;61000;48.120;11.548;2023-04-01T06:55:40;8.60;99.90
72865;DHT22;61000;48.120;11.548;2023-04-01T06:58:27;8.60;99.90
72865;DHT22;61000;48.120;11.548;2023-04-01T07:00:58;8.70;99.90
72865;DHT22;61000;48.120;11.548;2023-04-01T07:03:30;8.80;99.90
72865;DHT22;61000;48.120;11.548;2023-04-01T07:06:03;9.00;99.90
72865;DHT22;61000;48.120;11.548;2023-04-01T07:08:36;9.10;99.90
72865;DHT22;61000;48.120;11.548;2023-04-01T07:11:06;9.20;99.90
72865;DHT22;61000;48.120;11.548;2023-04-01T07:13:55;9.30;99.90
72865;DHT22;61000;48.120;11.548;2023-04-01T07:16:29;9.20;99.90
72865;DHT22;61000;48.120;11.548;2023-04-01T07:19:02;9.10;99.90
72865;DHT22;61000;48.120;11.548;2023-04-01T07:21:47;9.20;99.90
72865;DHT22;61000;48.120;11.548;2023-04-01T07:24:26;9.40;99.90
72865;DHT22;61000;48.120;11.548;2023-04-01T07:27:05;9.30;99.90
72865;DHT22;61000;48.120;11.548;2023-04-01T07:29:37;9.30;99.90
72865;DHT22;61000;48.120;11.548;2023-04-01T07:32:13;9.30;99.90
72865;DHT22;61000;48.120;11.548;2023-04-01T07:34:51;9.40;99.90
72865;DHT22;61000;48.120;11.548;2023-04-01T07:37:26;9.50;99.90
72865;DHT22;61000;48.120;11.548;2023-04-01T07:40:04;9.40;99.90
72865;DHT22;61000;48.120;11.548;2023-04-01T07:42:44;9.50;99.90
72865;DHT22;61000;48.120;11.548;2023-04-01T07:45:22;9.60;99.90
72865;DHT22;61000;48.120;11.548;2023-04-01T07:48:13;9.60;99.90
72865;DHT22;61000;48.120;11.548;2023-04-01T07:50:48;9.80;99.90
72865;DHT22;61000;48.120;11.548;2023-04-01T07:53:22;9.90;99.90
72865;DHT22;61000;48.120;11.548;2023-04-01T07:56:02;10.10;99.90
72865;DHT22;61000;48.120;11.548;2023-04-01T07:58:39;10.20;99.90
72865;DHT22;61000;48.120;11.548;2023-04-01T08:01:20;10.20;99.90
72865;DHT22;61000;48.120;11.548;2023-04-01T08:04:12;10.40;99.90
72865;DHT22;61000;48.120;11.548;2023-04-01T08:06:49;10.40;99.90
72865;DHT22;61000;48.120;11.548;2023-04-01T08:09:24;10.40;99.90
72865;DHT22;61000;48.120;11.548;2023-04-01T08:12:20;10.30;99.90
72865;DHT22;61000;48.120;11.548;2023-04-01T08:15:03;10.30;99.90
72865;DHT22;61000;48.120;11.548;2023-04-01T08:18:12;10.30;99.90
72865;DHT22;61000;48.120;11.548;2023-04-01T08:20:44;10.50;99.90
72865;DHT22;61000;48.120;11.548;2023-04-01T08:23:15;10.40;99.90
72865;DHT22;61000;48.120;11.548;2023-04-01T08:25:48;10.40;99.90
72865;DHT22;61000;48.120;11.548;2023-04-01T08:28:22;10.50;99.90
72865;DHT22;61000;48.120;11.548;2023-04-01T08:30:55;10.40;99.90
72865;DHT22;61000;48.120;11.548;2023-04-01T08:33:27;10.30;99.90
72865;DHT22;61000;48.120;11.548;2023-04-01T08:36:05;10.50;99.90
72865;DHT22;61000;48.120;11.548;2023-04-01T08:38:38;10.50;99.90
72865;DHT22;61000;48.120;11.548;2023-04-01T08:47:41;10.90;99.90
72865;DHT22;61000;48.120;11.548;2023-04-01T08:50:45;11.00;99.90
72865;DHT22;61000;48.120;11.548;2023-04-01T08:53:39;11.20;99.90
72865;DHT22;61000;48.120;11.548;2023-04-01T08:56:19;11.20;99.90
72865;DHT22;61000;48.120;11.548;2023-04-01T08:59:03;11.20;99.90
72865;DHT22;61000;48.120;11.548;2023-04-01T09:01:56;11.20;99.90
72865;DHT22;61000;48.120;11.548;2023-04-01T09:05:14;11.10;99.90
72865;DHT22;61000;48.120;11.548;2023-04-01T09:07:53;10.90;99.90
72865;DHT22;61000;48.120;11.548;2023-04-01T09:14:31;11.30;99.70
72865;DHT22;61000;48.120;11.548;2023-04-01T09:17:27;11.50;99.70
72865;DHT22;61000;48.120;11.548;2023-04-01T09:20:26;12.00;99.30
72865;DHT22;61000;48.120;11.548;2023-04-01T09:23:21;12.20;97.50
72865;DHT22;61000;48.120;11.548;2023-04-01T09:26:02;12.40;97.40
72865;DHT22;61000;48.120;11.548;2023-04-01T09:28:37;12.10;97.10
72865;DHT22;61000;48.120;11.548;2023-04-01T09:31:29;12.10;97.30
72865;DHT22;61000;48.120;11.548;2023-04-01T09:35:02;12.30;97.60
72865;DHT22;61000;48.120;11.548;2023-04-01T09:37:49;12.10;97.20
72865;DHT22;61000;48.120;11.548;2023-04-01T09:40:33;12.40;97.20
72865;DHT22;61000;48.120;11.548;2023-04-01T09:46:19;12.50;96.00
72865;DHT22;61000;48.120;11.548;2023-04-01T09:49:00;12.60;96.10
72865;DHT22;61000;48.120;11.548;2023-04-01T09:51:37;12.80;96.30
72865;DHT22;61000;48.120;11.548;2023-04-01T09:54:24;13.00;95.40
72865;DHT22;61000;48.120;11.548;2023-04-01T10:00:44;13.30;94.60
72865;DHT22;61000;48.120;11.548;2023-04-01T10:04:00;13.10;94.70
72865;DHT22;61000;48.120;11.548;2023-04-01T10:07:17;13.10;94.70
72865;DHT22;61000;48.120;11.548;2023-04-01T10:10:20;12.80;94.90
72865;DHT22;61000;48.120;11.548;2023-04-01T10:13:21;12.90;95.10
72865;DHT22;61000;48.120;11.548;2023-04-01T10:16:17;12.60;95.00
72865;DHT22;61000;48.120;11.548;2023-04-01T10:19:02;12.50;95.10
72865;DHT22;61000;48.120;11.548;2023-04-01T10:21:56;12.50;95.70
72865;DHT22;61000;48.120;11.548;2023-04-01T10:24:49;12.70;95.80
72865;DHT22;61000;48.120;11.548;2023-04-01T10:30:40;12.60;95.10
72865;DHT22;61000;48.120;11.548;2023-04-01T10:47:20;12.50;95.30
72865;DHT22;61000;48.120;11.548;2023-04-01T10:53:17;12.60;95.50
72865;DHT22;61000;48.120;11.548;2023-04-01T10:56:32;12.50;95.60
72865;DHT22;61000;48.120;11.548;2023-04-01T10:59:43;12.50;96.40
72865;DHT22;61000;48.120;11.548;2023-04-01T11:02:53;12.30;96.80
72865;DHT22;61000;48.120;11.548;2023-04-01T11:06:20;12.10;98.30
72865;DHT22;61000;48.120;11.548;2023-04-01T11:09:26;11.70;99.90
72865;DHT22;61000;48.120;11.548;2023-04-01T11:12:19;11.60;99.90
72865;DHT22;61000;48.120;11.548;2023-04-01T11:15:25;11.60;99.90
72865;DHT22;61000;48.120;11.548;2023-04-01T11:24:53;11.60;99.90
72865;DHT22;61000;48.120;11.548;2023-04-01T11:28:09;11.40;99.90
72865;DHT22;61000;48.120;11.548;2023-04-01T11:30:49;11.30;99.90
72865;DHT22;61000;48.120;11.548;2023-04-01T11:33:28;11.30;99.90
72865;DHT22;61000;48.120;11.548;2023-04-01T11:36:21;11.50;99.90
72865;DHT22;61000;48.120;11.548;2023-04-01T11:39:00;11.40;99.90
72865;DHT22;61000;48.120;11.548;2023-04-01T11:42:14;11.50;99.90
72865;DHT22;61000;48.120;11.548;2023-04-01T11:45:15;11.30;99.90
72865;DHT22;61000;48.120;11.548;2023-04-01T11:47:54;11.20;99.90
72865;DHT22;61000;48.120;11.548;2023-04-01T11:50:31;10.90;99.90
72865;DHT22;61000;48.120;11.548;2023-04-01T11:53:12;10.80;99.90
72865;DHT22;61000;48.120;11.548;2023-04-01T11:55:53;10.60;99.90
72865;DHT22;61000;48.120;11.548;2023-04-01T11:58:51;10.50;99.90
72865;DHT22;61000;48.120;11.548;2023-04-01T12:01:27;10.30;99.90
72865;DHT22;61000;48.120;11.548;2023-04-01T12:04:27;10.10;99.90
72865;DHT22;61000;48.120;11.548;2023-04-01T12:07:05;10.00;99.90
72865;DHT22;61000;48.120;11.548;2023-04-01T12:09:40;10.00;99.90
72865;DHT22;61000;48.120;11.548;2023-04-01T12:12:18;9.90;99.90
72865;DHT22;61000;48.120;11.548;2023-04-01T12:14:59;9.80;99.90
72865;DHT22;61000;48.120;11.548;2023-04-01T12:17:34;9.70;99.90
72865;DHT22;61000;48.120;11.548;2023-04-01T12:20:31;9.80;99.90
72865;DHT22;61000;48.120;11.548;2023-04-01T12:23:14;9.50;99.90
72865;DHT22;61000;48.120;11.548;2023-04-01T12:26:05;9.50;99.90
72865;DHT22;61000;48.120;11.548;2023-04-01T12:28:44;9.40;99.90
72865;DHT22;61000;48.120;11.548;2023-04-01T12:31:30;9.50;99.90
72865;DHT22;61000;48.120;11.548;2023-04-01T12:34:29;9.50;99.90
72865;DHT22;61000;48.120;11.548;2023-04-01T12:37:12;9.40;99.90
72865;DHT22;61000;48.120;11.548;2023-04-01T12:39:54;9.50;99.90
72865;DHT22;61000;48.120;11.548;2023-04-01T12:42:40;9.40;99.90
72865;DHT22;61000;48.120;11.548;2023-04-01T12:45:28;9.30;99.90
72865;DHT22;61000;48.120;11.548;2023-04-01T12:51:36;9.20;99.90
72865;DHT22;61000;48.120;11.548;2023-04-01T12:57:14;9.20;99.90
72865;DHT22;61000;48.120;11.548;2023-04-01T12:59:57;9.10;99.90
72865;DHT22;61000;48.120;11.548;2023-04-01T13:02:37;9.20;99.90
72865;DHT22;61000;48.120;11.548;2023-04-01T13:08:22;9.20;99.90
72865;DHT22;61000;48.120;11.548;2023-04-01T13:11:07;9.00;99.90
72865;DHT22;61000;48.120;11.548;2023-04-01T13:13:57;9.10;99.90
72865;DHT22;61000;48.120;11.548;2023-04-01T13:16:27;9.00;99.90
72865;DHT22;61000;48.120;11.548;2023-04-01T13:19:00;9.20;99.90
72865;DHT22;61000;48.120;11.548;2023-04-01T13:21:41;9.00;99.90
72865;DHT22;61000;48.120;11.548;2023-04-01T13:24:20;9.00;99.90
72865;DHT22;61000;48.120;11.548;2023-04-01T13:26:56;9.00;99.90
72865;DHT22;61000;48.120;11.548;2023-04-01T13:29:31;8.90;99.90
72865;DHT22;61000;48.120;11.548;2023-04-01T13:32:10;8.90;99.90
72865;DHT22;61000;48.120;11.548;2023-04-01T13:34:52;8.90;99.90
72865;DHT22;61000;48.120;11.548;2023-04-01T13:37:35;8.90;99.90
72865;DHT22;61000;48.120;11.548;2023-04-01T13:40:21;9.00;99.90
72865;DHT22;61000;48.120;11.548;2023-04-01T13:42:55;8.90;99.90
72865;DHT22;61000;48.120;11.548;2023-04-01T13:45:26;9.00;99.90
72865;DHT22;61000;48.120;11.548;2023-04-01T13:48:27;8.90;99.90
72865;DHT22;61000;48.120;11.548;2023-04-01T13:54:12;8.80;99.90
72865;DHT22;61000;48.120;11.548;2023-04-01T13:56:48;8.80;99.90
72865;DHT22;61000;48.120;11.548;2023-04-01T13:59:48;8.90;99.90
72865;DHT22;61000;48.120;11.548;2023-04-01T14:02:35;9.00;99.90
72865;DHT22;61000;48.120;11.548;2023-04-01T14:05:16;8.90;99.90
72865;DHT22;61000;48.120;11.548;2023-04-01T14:07:56;9.00;99.90
72865;DHT22;61000;48.120;11.548;2023-04-01T14:10:34;9.00;99.90
72865;DHT22;61000;48.120;11.548;2023-04-01T14:13:11;9.10;99.90
72865;DHT22;61000;48.120;11.548;2023-04-01T14:15:47;9.00;99.90
72865;DHT22;61000;48.120;11.548;2023-04-01T14:18:30;9.10;99.90
72865;DHT22;61000;48.120;11.548;2023-04-01T14:21:12;9.00;99.90
72865;DHT22;61000;48.120;11.548;2023-04-01T14:24:04;9.10;99.90
72865;DHT22;61000;48.120;11.548;2023-04-01T14:29:50;9.10;99.90
72865;DHT22;61000;48.120;11.548;2023-04-01T14:32:27;9.10;99.90
72865;DHT22;61000;48.120;11.548;2023-04-01T14:35:13;9.20;99.90
72865;DHT22;61000;48.120;11.548;2023-04-01T14:38:02;9.20;99.90
72865;DHT22;61000;48.120;11.548;2023-04-01T14:40:49;9.20;99.90
72865;DHT22;61000;48.120;11.548;2023-04-01T14:46:26;9.30;99.90
72865;DHT22;61000;48.120;11.548;2023-04-01T14:48:59;9.30;99.90
72865;DHT22;61000;48.120;11.548;2023-04-01T14:51:33;9.40;99.90
72865;DHT22;61000;48.120;11.548;2023-04-01T14:54:06;9.20;99.90
72865;DHT22;61000;48.120;11.548;2023-04-01T14:56:41;9.20;99.90
72865;DHT22;61000;48.120;11.548;2023-04-01T14:59:13;9.20;99.90
72865;DHT22;61000;48.120;11.548;2023-04-01T15:01:47;9.40;99.90
72865;DHT22;61000;48.120;11.548;2023-04-01T15:04:28;9.20;99.90
72865;DHT22;61000;48.120;11.548;2023-04-01T15:07:11;9.20;99.90
72865;DHT22;61000;48.120;11.548;2023-04-01T15:09:47;9.20;99.90
72865;DHT22;61000;48.120;11.548;2023-04-01T15:12:25;9.20;99.90
72865;DHT22;61000;48.120;11.548;2023-04-01T15:15:04;9.10;99.90
72865;DHT22;61000;48.120;11.548;2023-04-01T15:17:58;9.10;99.90
72865;DHT22;61000;48.120;11.548;2023-04-01T15:21:12;9.10;99.90
72865;DHT22;61000;48.120;11.548;2023-04-01T15:23:57;9.10;99.90
72865;DHT22;61000;48.120;11.548;2023-04-01T15:29:47;9.00;99.90
72865;DHT22;61000;48.120;11.548;2023-04-01T15:32:19;9.40;99.90
72865;DHT22;61000;48.120;11.548;2023-04-01T15:34:55;9.40;99.90
72865;DHT22;61000;48.120;11.548;2023-04-01T15:37:32;10.00;99.90
72865;DHT22;61000;48.120;11.548;2023-04-01T15:40:15;9.60;99.90
72865;DHT22;61000;48.120;11.548;2023-04-01T15:42:54;9.60;99.90
72865;DHT22;61000;48.120;11.548;2023-04-01T15:45:33;9.70;99.90
72865;DHT22;61000;48.120;11.548;2023-04-01T15:48:13;9.60;99.90
72865;DHT22;61000;48.120;11.548;2023-04-01T15:50:57;9.60;99.90
72865;DHT22;61000;48.120;11.548;2023-04-01T15:53:44;9.80;99.90
72865;DHT22;61000;48.120;11.548;2023-04-01T15:56:30;9.80;99.90
72865;DHT22;61000;48.120;11.548;2023-04-01T15:59:15;9.90;99.90
72865;DHT22;61000;48.120;11.548;2023-04-01T16:01:51;9.90;99.90
72865;DHT22;61000;48.120;11.548;2023-04-01T16:07:38;9.80;99.90
72865;DHT22;61000;48.120;11.548;2023-04-01T16:10:17;10.00;99.90
72865;DHT22;61000;48.120;11.548;2023-04-01T16:12:58;9.90;99.90
72865;DHT22;61000;48.120;11.548;2023-04-01T16:15:31;10.00;99.90
72865;DHT22;61000;48.120;11.548;2023-04-01T16:18:21;9.90;99.90
72865;DHT22;61000;48.120;11.548;2023-04-01T16:20:59;9.90;99.90
72865;DHT22;61000;48.120;11.548;2023-04-01T16:23:36;9.90;99.90
72865;DHT22;61000;48.120;11.548;2023-04-01T16:26:08;9.90;99.90
72865;DHT22;61000;48.120;11.548;2023-04-01T16:28:42;9.90;99.80
72865;DHT22;61000;48.120;11.548;2023-04-01T16:31:27;9.90;99.90
72865;DHT22;61000;48.120;11.548;2023-04-01T16:34:00;9.80;99.60
72865;DHT22;61000;48.120;11.548;2023-04-01T16:36:30;9.80;99.60
72865;DHT22;61000;48.120;11.548;2023-04-01T16:39:15;9.80;99.60
72865;DHT22;61000;48.120;11.548;2023-04-01T16:41:49;9.90;99.60
72865;DHT22;61000;48.120;11.548;2023-04-01T16:44:20;9.70;99.40
72865;DHT22;61000;48.120;11.548;2023-04-01T16:46:51;9.70;99.10
72865;DHT22;61000;48.120;11.548;2023-04-01T16:49:27;9.80;99.40
72865;DHT22;61000;48.120;11.548;2023-04-01T16:52:03;9.70;99.40
72865;DHT22;61000;48.120;11.548;2023-04-01T16:54:39;9.60;99.30
72865;DHT22;61000;48.120;11.548;2023-04-01T16:57:18;9.50;99.40
72865;DHT22;61000;48.120;11.548;2023-04-01T16:59:54;9.60;99.20
72865;DHT22;61000;48.120;11.548;2023-04-01T17:02:30;9.80;99.90
72865;DHT22;61000;48.120;11.548;2023-04-01T17:05:01;9.10;99.80
72865;DHT22;61000;48.120;11.548;2023-04-01T17:07:38;9.90;99.90
72865;DHT22;61000;48.120;11.548;2023-04-01T17:10:36;10.00;99.90
72865;DHT22;61000;48.120;11.548;2023-04-01T17:13:26;10.00;99.50
72865;DHT22;61000;48.120;11.548;2023-04-01T17:16:13;10.00;99.80
72865;DHT22;61000;48.120;11.548;2023-04-01T17:18:48;9.90;99.90
72865;DHT22;61000;48.120;11.548;2023-04-01T17:21:22;9.90;99.70
72865;DHT22;61000;48.120;11.548;2023-04-01T17:23:52;9.80;99.90
72865;DHT22;61000;48.120;11.548;2023-04-01T17:26:31;9.80;99.80
72865;DHT22;61000;48.120;11.548;2023-04-01T17:29:06;9.80;99.90
72865;DHT22;61000;48.120;11.548;2023-04-01T17:31:54;9.70;99.90
72865;DHT22;61000;48.120;11.548;2023-04-01T17:34:50;9.80;99.90
72865;DHT22;61000;48.120;11.548;2023-04-01T17:37:28;9.70;99.80
72865;DHT22;61000;48.120;11.548;2023-04-01T17:40:20;9.70;99.80
72865;DHT22;61000;48.120;11.548;2023-04-01T17:42:56;9.50;99.90
72865;DHT22;61000;48.120;11.548;2023-04-01T17:45:32;9.60;99.90
72865;DHT22;61000;48.120;11.548;2023-04-01T17:48:10;9.50;99.80